createdAt,value
2018-07-24T00:00:50.335Z,16.60
2018-07-24T00:03:18.837Z,16.60
2018-07-24T00:05:47.282Z,16.50
2018-07-24T00:08:15.755Z,16.50
2018-07-24T00:10:44.225Z,16.40
2018-07-24T00:13:12.649Z,16.40
2018-07-24T00:15:41.059Z,16.30
2018-07-24T00:18:09.575Z,16.30
2018-07-24T00:20:37.991Z,16.30
2018-07-24T00:23:06.878Z,16.20
2018-07-24T00:25:35.336Z,16.20
2018-07-24T00:28:03.748Z,16.10
2018-07-24T00:30:32.193Z,16.10
2018-07-24T00:33:00.660Z,16.00
2018-07-24T00:35:29.102Z,16.00
2018-07-24T00:37:57.536Z,15.90
2018-07-24T00:40:26.034Z,15.90
2018-07-24T00:42:54.464Z,15.90
2018-07-24T00:45:22.959Z,15.80
2018-07-24T00:47:51.425Z,15.80
2018-07-24T00:50:19.850Z,15.80
2018-07-24T00:52:48.282Z,15.80
2018-07-24T00:55:16.725Z,15.80
2018-07-24T00:57:45.168Z,15.70
2018-07-24T01:00:13.633Z,15.70
2018-07-24T01:02:42.067Z,15.70
2018-07-24T01:05:10.673Z,15.70
2018-07-24T01:07:39.827Z,15.60
2018-07-24T01:10:10.056Z,15.60
2018-07-24T01:12:38.481Z,15.60
2018-07-24T01:15:07.348Z,15.60
2018-07-24T01:17:35.826Z,15.50
2018-07-24T01:20:04.769Z,15.50
2018-07-24T01:22:33.204Z,15.40
2018-07-24T01:25:01.638Z,15.40
2018-07-24T01:27:30.068Z,15.30
2018-07-24T01:29:58.533Z,15.30
2018-07-24T01:32:27.006Z,15.20
2018-07-24T01:34:55.420Z,15.20
2018-07-24T01:37:23.868Z,15.20
2018-07-24T01:39:52.310Z,15.10
2018-07-24T01:42:20.737Z,15.10
2018-07-24T01:44:49.192Z,15.10
2018-07-24T01:47:17.806Z,15.10
2018-07-24T01:49:46.225Z,15.00
2018-07-24T01:52:14.694Z,15.00
2018-07-24T01:54:43.334Z,15.00
2018-07-24T01:57:11.972Z,15.00
2018-07-24T01:59:40.390Z,15.00
2018-07-24T02:02:08.834Z,14.90
2018-07-24T02:04:37.255Z,14.90
2018-07-24T02:07:05.686Z,14.90
2018-07-24T02:09:34.176Z,14.90
2018-07-24T02:12:02.660Z,14.90
2018-07-24T02:14:31.152Z,14.80
2018-07-24T02:16:59.635Z,14.90
2018-07-24T02:19:28.104Z,14.80
2018-07-24T02:21:56.851Z,14.80
2018-07-24T02:24:25.293Z,14.80
2018-07-24T02:26:53.713Z,14.80
2018-07-24T02:29:22.266Z,14.70
2018-07-24T02:34:18.956Z,14.70
2018-07-24T02:36:47.423Z,14.70
2018-07-24T02:39:15.891Z,14.70
2018-07-24T02:41:44.454Z,14.70
2018-07-24T02:44:12.894Z,14.60
2018-07-24T02:46:41.450Z,14.60
2018-07-24T02:49:09.934Z,14.60
2018-07-24T02:51:38.373Z,14.60
2018-07-24T02:54:06.834Z,14.60
2018-07-24T02:56:35.274Z,14.60
2018-07-24T02:59:03.709Z,14.60
2018-07-24T03:01:32.125Z,14.50
2018-07-24T03:04:01.184Z,14.50
2018-07-24T03:06:29.625Z,14.50
2018-07-24T03:08:58.092Z,14.40
2018-07-24T03:11:26.554Z,14.40
2018-07-24T03:13:55.010Z,14.40
2018-07-24T03:16:23.500Z,14.30
2018-07-24T03:18:51.923Z,14.30
2018-07-24T03:21:20.431Z,14.30
2018-07-24T03:23:48.905Z,14.30
2018-07-24T03:26:17.390Z,14.30
2018-07-24T03:28:45.886Z,14.20
2018-07-24T03:31:14.494Z,14.20
2018-07-24T03:33:43.029Z,14.20
2018-07-24T03:36:11.720Z,14.10
2018-07-24T03:38:40.265Z,14.20
2018-07-24T03:41:08.900Z,14.10
2018-07-24T03:43:37.728Z,14.10
2018-07-24T03:46:06.920Z,14.10
2018-07-24T03:51:04.170Z,14.10
2018-07-24T03:53:33.011Z,14.10
2018-07-24T03:56:01.798Z,14.00
2018-07-24T03:58:30.541Z,14.00
2018-07-24T04:00:59.478Z,14.00
2018-07-24T04:03:28.821Z,14.00
2018-07-24T04:05:57.564Z,14.00
2018-07-24T04:08:26.417Z,14.00
2018-07-24T04:10:55.110Z,14.00
2018-07-24T04:13:23.965Z,13.90
2018-07-24T04:15:53.286Z,13.90
2018-07-24T04:18:22.222Z,13.90
2018-07-24T04:20:51.688Z,13.90
2018-07-24T04:23:20.686Z,14.00
2018-07-24T04:25:49.676Z,13.90
2018-07-24T04:28:18.779Z,14.00
2018-07-24T04:30:47.886Z,14.00
2018-07-24T04:33:16.885Z,14.00
2018-07-24T04:35:46.054Z,14.00
2018-07-24T04:38:15.088Z,14.00
2018-07-24T04:40:44.083Z,14.00
2018-07-24T04:43:12.966Z,14.10
2018-07-24T04:45:42.273Z,14.10
2018-07-24T04:48:11.221Z,14.20
2018-07-24T04:50:40.199Z,14.20
2018-07-24T04:53:09.755Z,14.20
2018-07-24T04:55:38.935Z,14.40
2018-07-24T04:58:08.159Z,14.40
2018-07-24T05:00:37.167Z,14.50
2018-07-24T05:05:40.127Z,14.60
2018-07-24T05:08:09.148Z,14.60
2018-07-24T05:10:38.346Z,14.70
2018-07-24T05:13:07.839Z,14.70
2018-07-24T05:21:51.385Z,14.80
2018-07-24T05:24:20.725Z,14.80
2018-07-24T05:26:49.823Z,14.90
2018-07-24T05:29:18.883Z,14.90
2018-07-24T05:31:48.802Z,15.00
2018-07-24T05:34:18.017Z,15.20
2018-07-24T05:36:47.125Z,15.30
2018-07-24T05:39:16.443Z,15.40
2018-07-24T05:41:45.624Z,15.50
2018-07-24T05:47:02.350Z,15.60
2018-07-24T05:49:31.238Z,15.70
2018-07-24T05:52:00.181Z,15.70
2018-07-24T05:54:29.168Z,15.80
2018-07-24T05:57:08.776Z,15.80
2018-07-24T06:02:12.633Z,15.90
2018-07-24T06:04:44.611Z,16.00
2018-07-24T06:07:13.760Z,16.10
2018-07-24T06:10:14.702Z,16.10
2018-07-24T06:12:43.884Z,16.20
2018-07-24T06:15:12.806Z,16.30
2018-07-24T06:17:41.687Z,16.40
2018-07-24T06:20:11.996Z,16.50
2018-07-24T06:22:41.193Z,16.50
2018-07-24T06:25:10.333Z,16.60
2018-07-24T06:27:39.464Z,16.70
2018-07-24T06:30:08.586Z,16.70
2018-07-24T06:32:37.268Z,16.90
2018-07-24T06:35:06.291Z,16.90
2018-07-24T06:37:35.245Z,17.00
2018-07-24T06:40:04.275Z,17.10
2018-07-24T06:42:40.174Z,17.30
2018-07-24T06:45:09.145Z,17.40
2018-07-24T06:47:39.314Z,17.50
2018-07-24T06:50:08.413Z,17.60
2018-07-24T06:52:37.594Z,17.80
2018-07-24T06:55:06.781Z,17.80
2018-07-24T06:57:35.635Z,18.00
2018-07-24T07:00:05.611Z,18.10
2018-07-24T07:02:34.537Z,18.20
2018-07-24T07:05:04.136Z,18.30
2018-07-24T07:07:33.261Z,18.40
2018-07-24T07:10:03.514Z,18.50
2018-07-24T07:12:32.829Z,18.60
2018-07-24T07:15:07.129Z,18.70
2018-07-24T07:17:36.138Z,18.80
2018-07-24T07:20:05.264Z,18.90
2018-07-24T07:22:34.240Z,19.00
2018-07-24T07:25:03.461Z,19.10
2018-07-24T07:27:32.590Z,19.20
2018-07-24T07:30:01.573Z,19.40
2018-07-24T07:32:30.558Z,19.60
2018-07-24T07:35:00.013Z,19.70
2018-07-24T07:37:28.983Z,19.90
2018-07-24T07:39:58.426Z,20.20
2018-07-24T07:42:27.683Z,20.60
2018-07-24T07:44:56.529Z,21.20
2018-07-24T07:47:25.475Z,21.90
2018-07-24T07:49:54.560Z,22.60
2018-07-24T07:52:23.420Z,23.20
2018-07-24T07:54:52.270Z,23.60
2018-07-24T07:57:21.562Z,25.00
2018-07-24T07:59:50.445Z,25.50
2018-07-24T08:02:19.887Z,26.60
2018-07-24T08:04:49.027Z,26.50
2018-07-24T08:07:18.187Z,26.70
2018-07-24T08:09:47.348Z,27.00
2018-07-24T08:12:16.608Z,27.50
2018-07-24T08:14:46.439Z,27.60
2018-07-24T08:17:15.646Z,27.80
2018-07-24T08:19:45.061Z,28.50
2018-07-24T08:22:14.583Z,29.60
2018-07-24T08:24:43.660Z,29.80
2018-07-24T08:32:10.663Z,31.00
2018-07-24T08:34:40.042Z,31.30
2018-07-24T08:37:09.186Z,31.60
2018-07-24T08:39:38.665Z,33.40
2018-07-24T08:42:07.717Z,33.10
2018-07-24T08:44:36.949Z,31.90
2018-07-24T08:47:06.012Z,32.40
2018-07-24T08:49:34.782Z,33.00
2018-07-24T08:52:03.888Z,32.40
2018-07-24T08:57:01.025Z,33.60
2018-07-24T08:59:30.136Z,33.80
2018-07-24T09:01:59.502Z,33.10
2018-07-24T09:04:28.859Z,32.90
2018-07-24T09:06:58.416Z,32.90
2018-07-24T09:09:27.550Z,33.00
2018-07-24T09:11:57.347Z,32.90
2018-07-24T09:14:26.904Z,33.20
2018-07-24T09:16:56.113Z,32.40
2018-07-24T09:19:25.345Z,31.20
2018-07-24T09:21:54.623Z,31.90
2018-07-24T09:24:23.897Z,31.50
2018-07-24T09:26:52.797Z,32.60
2018-07-24T09:29:22.138Z,33.20
2018-07-24T09:31:51.256Z,32.40
2018-07-24T09:36:48.611Z,34.00
2018-07-24T09:39:18.245Z,34.50
2018-07-24T09:41:47.287Z,35.20
2018-07-24T09:44:16.506Z,33.30
2018-07-24T09:46:45.717Z,33.70
2018-07-24T09:49:14.770Z,33.30
2018-07-24T09:51:43.379Z,33.00
2018-07-24T09:54:12.079Z,31.70
2018-07-24T09:56:40.828Z,33.30
2018-07-24T09:59:09.404Z,33.10
2018-07-24T10:01:38.100Z,33.70
2018-07-24T10:04:06.848Z,34.70
2018-07-24T10:06:35.596Z,33.90
2018-07-24T10:09:06.720Z,33.50
2018-07-24T10:11:35.744Z,33.60
2018-07-24T10:14:04.346Z,33.60
2018-07-24T10:16:33.042Z,34.00
2018-07-24T10:19:01.899Z,33.80
2018-07-24T10:21:30.646Z,33.50
2018-07-24T10:23:59.715Z,33.60
2018-07-24T10:26:28.753Z,33.70
2018-07-24T10:29:23.751Z,34.10
2018-07-24T10:32:52.283Z,33.30
2018-07-24T10:35:27.662Z,33.00
2018-07-24T10:38:09.998Z,32.30
2018-07-24T10:40:48.374Z,32.50
2018-07-24T10:43:22.796Z,32.20
2018-07-24T10:45:53.213Z,32.30
2018-07-24T10:48:21.932Z,32.80
2018-07-24T10:50:51.392Z,32.40
2018-07-24T10:53:20.504Z,32.80
2018-07-24T10:55:49.526Z,32.80
2018-07-24T10:58:18.443Z,32.40
2018-07-24T11:00:47.896Z,32.90
2018-07-24T11:03:16.824Z,32.60
2018-07-24T11:05:45.762Z,32.70
2018-07-24T11:08:16.737Z,32.90
2018-07-24T11:13:25.434Z,33.10
2018-07-24T11:15:54.692Z,31.90
2018-07-24T11:18:23.356Z,31.50
2018-07-24T11:21:00.126Z,31.40
2018-07-24T11:23:29.026Z,31.60
2018-07-24T11:25:57.987Z,31.70
2018-07-24T11:28:28.200Z,31.40
2018-07-24T11:31:02.782Z,32.10
2018-07-24T11:33:31.717Z,32.80
2018-07-24T11:36:00.853Z,32.60
2018-07-24T11:38:29.488Z,32.10
2018-07-24T11:40:58.229Z,32.30
2018-07-24T11:43:26.866Z,32.90
2018-07-24T11:46:00.689Z,32.80
2018-07-24T11:48:29.688Z,33.10
2018-07-24T11:50:58.622Z,33.10
2018-07-24T11:53:30.193Z,33.20
2018-07-24T11:56:01.045Z,33.10
2018-07-24T11:58:29.881Z,32.20
2018-07-24T12:01:00.799Z,32.30
2018-07-24T12:03:29.468Z,32.20
2018-07-24T12:05:58.216Z,31.80
2018-07-24T12:08:34.907Z,32.60
2018-07-24T12:11:03.807Z,32.70
2018-07-24T12:13:39.690Z,32.70
2018-07-24T12:16:08.539Z,33.20
2018-07-24T12:18:37.976Z,33.10
2018-07-24T12:21:08.053Z,32.90
2018-07-24T12:23:39.773Z,32.90
2018-07-24T12:26:08.442Z,32.70
2018-07-24T12:28:38.399Z,33.20
2018-07-24T12:31:07.144Z,32.40
2018-07-24T12:33:35.796Z,32.70
2018-07-24T12:36:15.567Z,32.70
2018-07-24T12:38:47.740Z,32.60
2018-07-24T12:46:50.296Z,33.10
2018-07-24T12:49:29.998Z,32.20
2018-07-24T12:52:00.983Z,32.50
2018-07-24T12:54:32.085Z,32.70
2018-07-24T12:57:01.193Z,33.00
2018-07-24T12:59:30.196Z,32.90
2018-07-24T13:01:59.045Z,33.20
2018-07-24T13:04:28.442Z,32.90
2018-07-24T13:06:57.071Z,32.90
2018-07-24T13:09:39.067Z,32.40
2018-07-24T13:12:37.320Z,32.50
2018-07-24T13:19:27.040Z,32.30
2018-07-24T13:21:55.957Z,32.40
2018-07-24T13:24:24.789Z,32.70
2018-07-24T13:26:53.557Z,33.20
2018-07-24T13:29:38.469Z,32.80
2018-07-24T13:35:42.064Z,33.20
2018-07-24T13:41:00.294Z,33.20
2018-07-24T13:43:34.230Z,33.20
2018-07-24T13:46:03.531Z,33.60
2018-07-24T13:48:38.835Z,34.00
2018-07-24T13:51:07.976Z,33.50
2018-07-24T13:53:53.307Z,33.50
2018-07-24T13:56:26.091Z,33.60
2018-07-24T13:58:59.228Z,33.90
2018-07-24T14:01:28.214Z,33.80
2018-07-24T14:04:01.719Z,32.90
2018-07-24T14:06:30.500Z,33.00
2018-07-24T14:11:33.877Z,32.50
2018-07-24T14:14:02.836Z,32.20
2018-07-24T14:16:31.456Z,32.70
2018-07-24T14:19:00.272Z,32.40
2018-07-24T14:21:29.190Z,32.80
2018-07-24T14:23:58.325Z,32.80
2018-07-24T14:26:27.169Z,33.00
2018-07-24T14:28:56.322Z,32.70
2018-07-24T14:31:36.327Z,32.80
2018-07-24T14:34:05.405Z,33.00
2018-07-24T14:36:35.179Z,32.70
2018-07-24T14:39:06.242Z,32.50
2018-07-24T14:46:57.996Z,32.40
2018-07-24T14:49:26.873Z,32.40
2018-07-24T14:55:42.226Z,32.00
2018-07-24T14:58:11.424Z,32.40
2018-07-24T15:03:50.602Z,32.00
